Language: 


Des rapports , des résumés tant et plus, au choix de chacun....


Données statistiques de la station
Quotidien Rapport Janvier 3, 2018 Unités:  les deux    Anglais   Métrique
« Précédent Jour
Suivant Jour »
Quotidien Hebdomadaire Mensuel Annuel Actuel
  Haut: Bas: Moyen:
Température: TemperatureC °F /  -17.8 °C 7.8 °F /  -13.4 °C 9.8 °F /  -12.3 °C
Pt de rosée: DewpointC °F /  -17.8 °C 3.0 °F /  -16.1 °C 6.2 °F /  -14.3 °C
Humidité: Humidity % 63 % 77 %
Vitesse du vent: WindSpeedKMH mph /  0 km/h - 30.6 mph /  49.2 km/h
Rafales: WindSpeedGustKMH mph /  0 km/h - -
Vent:- - WSW
Pression: PressurehPa in /  0 hPa 988.0 in /  33453.7 hPa -
Précipitation: 9.4 in /  238.76 mm    
Historical Graphs
 
 
Données statistiques pour Janvier 3, 2018
Heure Température Point de rosée Pression Vent Vitesse du vent Refales Humidité Pluie (taux horaire)
TemperatureC °F /  -17.8 °C DewpointC °F /  -17.8 °C PressurehPa in /  0 hPa Calm     Humidity % HourlyPrecipMM in /  0 mm
00:03 10.8 °F /  -11.8 °C 10.0 °F /  -12.2 °C 996.2 in /  33731.3 hPa South 11.9 mph /  19.2 km/h 17.7 mph /  28.5 km/h 97 % 0.0 in /  0 mm
00:04 10.8 °F /  -11.8 °C 10.0 °F /  -12.2 °C 996.2 in /  33731.3 hPa South 13.7 mph /  22 km/h 17.7 mph /  28.5 km/h 97 % 0.0 in /  0 mm
00:09 10.9 °F /  -11.7 °C 11.0 °F /  -11.7 °C 996.2 in /  33731.3 hPa WSW 14.0 mph /  22.5 km/h 23.8 mph /  38.3 km/h 97 % 0.0 in /  0 mm
00:14 11.0 °F /  -11.7 °C 11.0 °F /  -11.7 °C 996.8 in /  33751.6 hPa SSW 13.7 mph /  22 km/h 24.8 mph /  39.9 km/h 97 % 0.0 in /  0 mm
00:20 11.1 °F /  -11.6 °C 11.0 °F /  -11.7 °C 996.8 in /  33751.6 hPa WSW 13.7 mph /  22 km/h 24.8 mph /  39.9 km/h 97 % 0.0 in /  0 mm
00:25 11.1 °F /  -11.6 °C 11.0 °F /  -11.7 °C 996.8 in /  33751.6 hPa SW 23.8 mph /  38.3 km/h 31.4 mph /  50.5 km/h 97 % 0.0 in /  0 mm
00:28 11.1 °F /  -11.6 °C 11.0 °F /  -11.7 °C 995.1 in /  33694.1 hPa SW 16.9 mph /  27.2 km/h 31.4 mph /  50.5 km/h 97 % 0.0 in /  0 mm
00:33 11.1 °F /  -11.6 °C 11.0 °F /  -11.7 °C 995.1 in /  33694.1 hPa SSW 11.1 mph /  17.9 km/h 23.8 mph /  38.3 km/h 97 % 0.0 in /  0 mm
00:34 11.1 °F /  -11.6 °C 11.0 °F /  -11.7 °C 995.1 in /  33694.1 hPa SW 17.2 mph /  27.7 km/h 23.8 mph /  38.3 km/h 97 % 0.0 in /  0 mm
00:40 11.0 °F /  -11.7 °C 11.0 °F /  -11.7 °C 995.1 in /  33694.1 hPa SSW 15.8 mph /  25.4 km/h 24.8 mph /  39.9 km/h 98 % 0.8 in /  20.32 mm
00:41 11.0 °F /  -11.7 °C 11.0 °F /  -11.7 °C 995.1 in /  33694.1 hPa SW 14.0 mph /  22.5 km/h 24.8 mph /  39.9 km/h 98 % 1.0 in /  25.4 mm
00:42 11.0 °F /  -11.7 °C 11.0 °F /  -11.7 °C 995.1 in /  33694.1 hPa SW 27.7 mph /  44.6 km/h 27.7 mph /  44.6 km/h 98 % 1.0 in /  25.4 mm
00:47 10.9 °F /  -11.7 °C 11.0 °F /  -11.7 °C 995.1 in /  33694.1 hPa SW 16.9 mph /  27.2 km/h 27.7 mph /  44.6 km/h 98 % 1.3 in /  33.02 mm
00:48 10.9 °F /  -11.7 °C 11.0 °F /  -11.7 °C 995.1 in /  33694.1 hPa SSW 19.8 mph /  31.9 km/h 27.7 mph /  44.6 km/h 98 % 1.3 in /  33.02 mm
00:53 10.9 °F /  -11.7 °C 11.0 °F /  -11.7 °C 995.1 in /  33694.1 hPa SW 19.8 mph /  31.9 km/h 24.8 mph /  39.9 km/h 98 % 1.5 in /  38.1 mm
00:55 10.9 °F /  -11.7 °C 11.0 °F /  -11.7 °C 995.1 in /  33694.1 hPa SSW 23.0 mph /  37 km/h 32.8 mph /  52.8 km/h 98 % 1.5 in /  38.1 mm
01:01 10.9 °F /  -11.7 °C 11.0 °F /  -11.7 °C 995.1 in /  33694.1 hPa SSW 14.0 mph /  22.5 km/h 32.8 mph /  52.8 km/h 98 % 1.8 in /  45.72 mm
01:04 10.9 °F /  -11.7 °C 11.0 °F /  -11.7 °C 995.1 in /  33694.1 hPa SSW 16.6 mph /  26.7 km/h 32.8 mph /  52.8 km/h 98 % 2.3 in /  58.42 mm
01:10 10.9 °F /  -11.7 °C 11.0 °F /  -11.7 °C 995.1 in /  33694.1 hPa WSW 15.1 mph /  24.3 km/h 25.6 mph /  41.2 km/h 98 % 2.5 in /  63.5 mm
01:12 10.9 °F /  -11.7 °C 11.0 °F /  -11.7 °C 994.1 in /  33660.2 hPa SSW 14.3 mph /  23 km/h 25.6 mph /  41.2 km/h 98 % 2.5 in /  63.5 mm
01:17 10.9 °F /  -11.7 °C 11.0 °F /  -11.7 °C 994.1 in /  33660.2 hPa SW 20.1 mph /  32.3 km/h 25.6 mph /  41.2 km/h 98 % 2.8 in /  71.12 mm
01:21 11.0 °F /  -11.7 °C 11.0 °F /  -11.7 °C 994.1 in /  33660.2 hPa SSW 24.8 mph /  39.9 km/h 37.5 mph /  60.3 km/h 98 % 2.8 in /  71.12 mm
01:26 11.0 °F /  -11.7 °C 11.0 °F /  -11.7 °C 993.1 in /  33626.4 hPa SSW 14.0 mph /  22.5 km/h 37.5 mph /  60.3 km/h 98 % 2.8 in /  71.12 mm
01:36 11.2 °F /  -11.6 °C 11.0 °F /  -11.7 °C 993.1 in /  33626.4 hPa SSW 15.8 mph /  25.4 km/h 30.9 mph /  49.7 km/h 98 % 3.3 in /  83.82 mm
01:39 11.2 °F /  -11.6 °C 11.0 °F /  -11.7 °C 993.1 in /  33626.4 hPa SSW 25.3 mph /  40.7 km/h 36.0 mph /  57.9 km/h 98 % 3.0 in /  76.2 mm
01:42 11.3 °F /  -11.5 °C 11.0 °F /  -11.7 °C 992.1 in /  33592.5 hPa SW 19.1 mph /  30.7 km/h 36.0 mph /  57.9 km/h 98 % 2.8 in /  71.12 mm
01:46 11.3 °F /  -11.5 °C 11.0 °F /  -11.7 °C 992.1 in /  33592.5 hPa WSW 28.0 mph /  45.1 km/h 36.0 mph /  57.9 km/h 98 % 2.8 in /  71.12 mm
01:51 11.4 °F /  -11.4 °C 11.0 °F /  -11.7 °C 992.1 in /  33592.5 hPa SW 33.1 mph /  53.3 km/h 38.5 mph /  62 km/h 98 % 2.5 in /  63.5 mm
01:53 11.4 °F /  -11.4 °C 11.0 °F /  -11.7 °C 992.1 in /  33592.5 hPa WSW 28.0 mph /  45.1 km/h 38.5 mph /  62 km/h 98 % 2.5 in /  63.5 mm
01:58 11.5 °F /  -11.4 °C 12.0 °F /  -11.1 °C 991.1 in /  33558.6 hPa SSW 27.7 mph /  44.6 km/h 37.5 mph /  60.3 km/h 98 % 2.3 in /  58.42 mm
02:00 11.6 °F /  -11.3 °C 12.0 °F /  -11.1 °C 991.1 in /  33558.6 hPa SW 20.6 mph /  33.2 km/h 37.5 mph /  60.3 km/h 98 % 2.3 in /  58.42 mm
02:05 11.7 °F /  -11.3 °C 12.0 °F /  -11.1 °C 991.1 in /  33558.6 hPa WSW 16.3 mph /  26.2 km/h 39.6 mph /  63.7 km/h 98 % 1.8 in /  45.72 mm
02:06 11.7 °F /  -11.3 °C 12.0 °F /  -11.1 °C 991.1 in /  33558.6 hPa WSW 24.5 mph /  39.4 km/h 39.6 mph /  63.7 km/h 98 % 1.5 in /  38.1 mm
02:13 11.7 °F /  -11.3 °C 12.0 °F /  -11.1 °C 991.1 in /  33558.6 hPa SSW 29.9 mph /  48.1 km/h 39.6 mph /  63.7 km/h 98 % 1.5 in /  38.1 mm
02:14 11.8 °F /  -11.2 °C 12.0 °F /  -11.1 °C 991.1 in /  33558.6 hPa SSW 25.6 mph /  41.2 km/h 36.7 mph /  59.1 km/h 98 % 1.5 in /  38.1 mm
02:20 11.9 °F /  -11.2 °C 12.0 °F /  -11.1 °C 991.1 in /  33558.6 hPa SW 41.7 mph /  67.1 km/h 41.7 mph /  67.1 km/h 98 % 1.5 in /  38.1 mm
02:22 12.0 °F /  -11.1 °C 12.0 °F /  -11.1 °C 991.1 in /  33558.6 hPa WSW 28.0 mph /  45.1 km/h 41.7 mph /  67.1 km/h 98 % 1.5 in /  38.1 mm
02:28 12.0 °F /  -11.1 °C 12.0 °F /  -11.1 °C 990.1 in /  33524.8 hPa WSW 25.3 mph /  40.7 km/h 41.7 mph /  67.1 km/h 98 % 1.3 in /  33.02 mm
02:29 12.0 °F /  -11.1 °C 12.0 °F /  -11.1 °C 990.1 in /  33524.8 hPa WSW 39.6 mph /  63.7 km/h 41.7 mph /  67.1 km/h 98 % 1.3 in /  33.02 mm
02:33 12.1 °F /  -11.1 °C 12.0 °F /  -11.1 °C 990.1 in /  33524.8 hPa WSW 42.2 mph /  67.9 km/h 42.2 mph /  67.9 km/h 98 % 0.8 in /  20.32 mm
02:38 12.2 °F /  -11 °C 12.0 °F /  -11.1 °C 990.1 in /  33524.8 hPa WSW 30.9 mph /  49.7 km/h 42.2 mph /  67.9 km/h 98 % 0.5 in /  12.7 mm
02:40 12.2 °F /  -11 °C 12.0 °F /  -11.1 °C 990.1 in /  33524.8 hPa WSW 19.5 mph /  31.4 km/h 42.2 mph /  67.9 km/h 98 % 0.5 in /  12.7 mm
02:47 12.2 °F /  -11 °C 12.0 °F /  -11.1 °C 989.1 in /  33490.9 hPa WSW 26.7 mph /  43 km/h 42.8 mph /  68.9 km/h 98 % 1.3 in /  33.02 mm
02:48 12.2 °F /  -11 °C 12.0 °F /  -11.1 °C 989.1 in /  33490.9 hPa WSW 24.8 mph /  39.9 km/h 42.8 mph /  68.9 km/h 98 % 1.5 in /  38.1 mm
02:53 12.3 °F /  -10.9 °C 13.0 °F /  -10.6 °C 989.1 in /  33490.9 hPa WSW 28.5 mph /  45.9 km/h 44.6 mph /  71.8 km/h 98 % 2.5 in /  63.5 mm
02:57 12.3 °F /  -10.9 °C 13.0 °F /  -10.6 °C 989.1 in /  33490.9 hPa WSW 29.1 mph /  46.8 km/h 44.6 mph /  71.8 km/h 98 % 3.0 in /  76.2 mm
03:03 12.2 °F /  -11 °C 12.0 °F /  -11.1 °C 989.1 in /  33490.9 hPa West 28.0 mph /  45.1 km/h 36.0 mph /  57.9 km/h 98 % 3.8 in /  96.52 mm
03:05 12.2 °F /  -11 °C 12.0 °F /  -11.1 °C 989.1 in /  33490.9 hPa WSW 28.5 mph /  45.9 km/h 36.0 mph /  57.9 km/h 98 % 3.8 in /  96.52 mm
03:10 12.4 °F /  -10.9 °C 13.0 °F /  -10.6 °C 989.1 in /  33490.9 hPa West 42.2 mph /  67.9 km/h 60.2 mph /  96.9 km/h 98 % 3.8 in /  96.52 mm
03:12 12.5 °F /  -10.8 °C 13.0 °F /  -10.6 °C 989.1 in /  33490.9 hPa West 32.3 mph /  52 km/h 63.4 mph /  102 km/h 98 % 4.1 in /  104.14 mm
03:16 12.5 °F /  -10.8 °C 13.0 °F /  -10.6 °C 989.1 in /  33490.9 hPa WSW 48.3 mph /  77.7 km/h 63.4 mph /  102 km/h 98 % 4.3 in /  109.22 mm
03:21 12.4 °F /  -10.9 °C 13.0 °F /  -10.6 °C 989.1 in /  33490.9 hPa West 47.5 mph /  76.4 km/h 56.8 mph /  91.4 km/h 98 % 4.6 in /  116.84 mm
03:23 12.4 °F /  -10.9 °C 13.0 °F /  -10.6 °C 989.1 in /  33490.9 hPa West 49.7 mph /  80 km/h 56.8 mph /  91.4 km/h 98 % 4.6 in /  116.84 mm
03:28 12.3 °F /  -10.9 °C 12.0 °F /  -11.1 °C 989.1 in /  33490.9 hPa WNW 38.5 mph /  62 km/h 66.9 mph /  107.7 km/h 95 % 4.6 in /  116.84 mm
03:32 12.2 °F /  -11 °C 11.0 °F /  -11.7 °C 989.1 in /  33490.9 hPa West 39.6 mph /  63.7 km/h 66.9 mph /  107.7 km/h 93 % 4.6 in /  116.84 mm
03:37 12.0 °F /  -11.1 °C 11.0 °F /  -11.7 °C 989.1 in /  33490.9 hPa West 40.4 mph /  65 km/h 73.9 mph /  118.9 km/h 91 % 4.6 in /  116.84 mm
03:38 11.9 °F /  -11.2 °C 11.0 °F /  -11.7 °C 989.1 in /  33490.9 hPa West 37.0 mph /  59.5 km/h 73.9 mph /  118.9 km/h 91 % 4.6 in /  116.84 mm
03:39 11.9 °F /  -11.2 °C 11.0 °F /  -11.7 °C 989.1 in /  33490.9 hPa West 46.0 mph /  74 km/h 73.9 mph /  118.9 km/h 91 % 4.6 in /  116.84 mm
03:48 11.8 °F /  -11.2 °C 10.0 °F /  -12.2 °C 989.1 in /  33490.9 hPa West 33.1 mph /  53.3 km/h 46.0 mph /  74 km/h 91 % 3.8 in /  96.52 mm
03:50 11.7 °F /  -11.3 °C 10.0 °F /  -12.2 °C 989.1 in /  33490.9 hPa WSW 38.1 mph /  61.3 km/h 49.2 mph /  79.2 km/h 91 % 3.3 in /  83.82 mm
03:55 11.7 °F /  -11.3 °C 10.0 °F /  -12.2 °C 989.1 in /  33490.9 hPa West 25.9 mph /  41.7 km/h 49.2 mph /  79.2 km/h 91 % 2.5 in /  63.5 mm
04:01 11.7 °F /  -11.3 °C 10.0 °F /  -12.2 °C 991.1 in /  33558.6 hPa West 43.1 mph /  69.4 km/h 45.1 mph /  72.6 km/h 90 % 1.5 in /  38.1 mm
04:07 11.7 °F /  -11.3 °C 10.0 °F /  -12.2 °C 991.1 in /  33558.6 hPa West 30.2 mph /  48.6 km/h 49.2 mph /  79.2 km/h 88 % 1.5 in /  38.1 mm
04:08 11.7 °F /  -11.3 °C 10.0 °F /  -12.2 °C 991.1 in /  33558.6 hPa West 36.4 mph /  58.6 km/h 49.2 mph /  79.2 km/h 87 % 1.5 in /  38.1 mm
04:14 11.7 °F /  -11.3 °C 9.0 °F /  -12.8 °C 989.1 in /  33490.9 hPa WSW 30.9 mph /  49.7 km/h 51.5 mph /  82.9 km/h 86 % 0.8 in /  20.32 mm
04:15 11.6 °F /  -11.3 °C 9.0 °F /  -12.8 °C 989.1 in /  33490.9 hPa West 37.5 mph /  60.3 km/h 51.5 mph /  82.9 km/h 86 % 0.8 in /  20.32 mm
04:20 11.7 °F /  -11.3 °C 9.0 °F /  -12.8 °C 989.1 in /  33490.9 hPa West 39.3 mph /  63.2 km/h 51.5 mph /  82.9 km/h 86 % 0.3 in /  7.62 mm
04:25 11.7 °F /  -11.3 °C 9.0 °F /  -12.8 °C 989.1 in /  33490.9 hPa WSW 37.8 mph /  60.8 km/h 52.1 mph /  83.8 km/h 85 % 0.3 in /  7.62 mm
04:30 11.6 °F /  -11.3 °C 9.0 °F /  -12.8 °C 990.1 in /  33524.8 hPa WSW 52.6 mph /  84.6 km/h 52.6 mph /  84.6 km/h 85 % 0.3 in /  7.62 mm
04:31 11.6 °F /  -11.3 °C 9.0 °F /  -12.8 °C 990.1 in /  33524.8 hPa West 38.1 mph /  61.3 km/h 52.6 mph /  84.6 km/h 85 % 0.3 in /  7.62 mm
04:36 11.5 °F /  -11.4 °C 9.0 °F /  -12.8 °C 990.1 in /  33524.8 hPa West 45.7 mph /  73.5 km/h 55.3 mph /  89 km/h 83 % 0.3 in /  7.62 mm
04:40 11.5 °F /  -11.4 °C 9.0 °F /  -12.8 °C 990.1 in /  33524.8 hPa WSW 42.5 mph /  68.4 km/h 55.3 mph /  89 km/h 81 % 0.3 in /  7.62 mm
04:44 11.4 °F /  -11.4 °C 8.0 °F /  -13.3 °C 990.1 in /  33524.8 hPa WSW 36.7 mph /  59.1 km/h 55.3 mph /  89 km/h 80 % 0.3 in /  7.62 mm
04:49 11.3 °F /  -11.5 °C 8.0 °F /  -13.3 °C 990.1 in /  33524.8 hPa West 36.7 mph /  59.1 km/h 51.5 mph /  82.9 km/h 79 % 0.0 in /  0 mm
04:51 11.3 °F /  -11.5 °C 8.0 °F /  -13.3 °C 990.1 in /  33524.8 hPa WSW 47.1 mph /  75.8 km/h 48.6 mph /  78.2 km/h 79 % 0.0 in /  0 mm
04:56 11.3 °F /  -11.5 °C 8.0 °F /  -13.3 °C 990.1 in /  33524.8 hPa WSW 31.4 mph /  50.5 km/h 47.9 mph /  77.1 km/h 79 % 0.0 in /  0 mm
04:59 11.3 °F /  -11.5 °C 8.0 °F /  -13.3 °C 990.1 in /  33524.8 hPa West 34.3 mph /  55.2 km/h 47.9 mph /  77.1 km/h 79 % 0.0 in /  0 mm
05:04 11.3 °F /  -11.5 °C 8.0 °F /  -13.3 °C 990.1 in /  33524.8 hPa West 36.7 mph /  59.1 km/h 49.7 mph /  80 km/h 79 % 0.0 in /  0 mm
05:09 11.3 °F /  -11.5 °C 8.0 °F /  -13.3 °C 990.1 in /  33524.8 hPa WSW 28.0 mph /  45.1 km/h 60.5 mph /  97.4 km/h 80 % 0.0 in /  0 mm
05:10 11.3 °F /  -11.5 °C 8.0 °F /  -13.3 °C 990.1 in /  33524.8 hPa West 43.9 mph /  70.6 km/h 60.5 mph /  97.4 km/h 80 % 0.0 in /  0 mm
05:15 11.3 °F /  -11.5 °C 8.0 °F /  -13.3 °C 990.1 in /  33524.8 hPa WSW 44.6 mph /  71.8 km/h 56.8 mph /  91.4 km/h 79 % 0.0 in /  0 mm
05:20 11.3 °F /  -11.5 °C 8.0 °F /  -13.3 °C 990.1 in /  33524.8 hPa West 39.3 mph /  63.2 km/h 60.5 mph /  97.4 km/h 77 % 0.0 in /  0 mm
05:21 11.3 °F /  -11.5 °C 7.0 °F /  -13.9 °C 990.1 in /  33524.8 hPa WSW 37.8 mph /  60.8 km/h 60.5 mph /  97.4 km/h 76 % 0.0 in /  0 mm
05:26 11.2 °F /  -11.6 °C 7.0 °F /  -13.9 °C 988.0 in /  33453.7 hPa West 37.0 mph /  59.5 km/h 60.5 mph /  97.4 km/h 75 % 0.0 in /  0 mm
05:28 11.1 °F /  -11.6 °C 7.0 °F /  -13.9 °C 988.0 in /  33453.7 hPa WSW 45.7 mph /  73.5 km/h 49.2 mph /  79.2 km/h 76 % 0.0 in /  0 mm
05:33 11.1 °F /  -11.6 °C 7.0 °F /  -13.9 °C 988.0 in /  33453.7 hPa WSW 44.2 mph /  71.1 km/h 52.1 mph /  83.8 km/h 75 % 0.0 in /  0 mm
05:38 11.0 °F /  -11.7 °C 7.0 °F /  -13.9 °C 988.0 in /  33453.7 hPa WSW 43.9 mph /  70.6 km/h 52.1 mph /  83.8 km/h 74 % 0.0 in /  0 mm
05:40 11.0 °F /  -11.7 °C 6.0 °F /  -14.4 °C 988.0 in /  33453.7 hPa WSW 44.2 mph /  71.1 km/h 45.7 mph /  73.5 km/h 73 % 0.0 in /  0 mm
05:45 10.9 °F /  -11.7 °C 6.0 °F /  -14.4 °C 990.1 in /  33524.8 hPa WSW 41.0 mph /  66 km/h 48.6 mph /  78.2 km/h 71 % 0.0 in /  0 mm
05:46 10.9 °F /  -11.7 °C 6.0 °F /  -14.4 °C 990.1 in /  33524.8 hPa West 47.9 mph /  77.1 km/h 48.6 mph /  78.2 km/h 70 % 0.0 in /  0 mm
05:51 10.8 °F /  -11.8 °C 5.0 °F /  -15 °C 990.1 in /  33524.8 hPa WSW 63.4 mph /  102 km/h 63.4 mph /  102 km/h 65 % 0.0 in /  0 mm
05:53 10.8 °F /  -11.8 °C 4.0 °F /  -15.6 °C 990.1 in /  33524.8 hPa West 38.9 mph /  62.6 km/h 63.4 mph /  102 km/h 64 % 0.0 in /  0 mm
05:58 10.7 °F /  -11.8 °C 4.0 °F /  -15.6 °C 989.1 in /  33490.9 hPa West 37.0 mph /  59.5 km/h 63.4 mph /  102 km/h 64 % 0.0 in /  0 mm
05:59 10.7 °F /  -11.8 °C 4.0 °F /  -15.6 °C 989.1 in /  33490.9 hPa WSW 47.1 mph /  75.8 km/h 63.4 mph /  102 km/h 64 % 0.0 in /  0 mm
06:01 10.7 °F /  -11.8 °C 4.0 °F /  -15.6 °C 989.1 in /  33490.9 hPa WSW 59.7 mph /  96.1 km/h 59.7 mph /  96.1 km/h 63 % 0.0 in /  0 mm
06:04 10.6 °F /  -11.9 °C 4.0 °F /  -15.6 °C 989.1 in /  33490.9 hPa West 28.0 mph /  45.1 km/h 60.8 mph /  97.8 km/h 64 % 0.0 in /  0 mm
06:09 10.6 °F /  -11.9 °C 4.0 °F /  -15.6 °C 989.1 in /  33490.9 hPa WSW 49.2 mph /  79.2 km/h 60.8 mph /  97.8 km/h 63 % 0.0 in /  0 mm
06:10 10.6 °F /  -11.9 °C 4.0 °F /  -15.6 °C 989.1 in /  33490.9 hPa WSW 39.6 mph /  63.7 km/h 60.8 mph /  97.8 km/h 63 % 0.0 in /  0 mm
06:15 10.4 °F /  -12 °C 4.0 °F /  -15.6 °C 989.1 in /  33490.9 hPa West 59.7 mph /  96.1 km/h 59.7 mph /  96.1 km/h 64 % 0.0 in /  0 mm
06:16 10.4 °F /  -12 °C 4.0 °F /  -15.6 °C 989.1 in /  33490.9 hPa SW 36.0 mph /  57.9 km/h 59.7 mph /  96.1 km/h 64 % 0.0 in /  0 mm
06:17 10.4 °F /  -12 °C 4.0 °F /  -15.6 °C 989.1 in /  33490.9 hPa WSW 41.4 mph /  66.6 km/h 59.7 mph /  96.1 km/h 64 % 0.0 in /  0 mm
06:22 10.3 °F /  -12.1 °C 4.0 °F /  -15.6 °C 989.1 in /  33490.9 hPa West 42.8 mph /  68.9 km/h 59.7 mph /  96.1 km/h 65 % 0.0 in /  0 mm
06:24 10.3 °F /  -12.1 °C 4.0 °F /  -15.6 °C 989.1 in /  33490.9 hPa West 45.7 mph /  73.5 km/h 59.7 mph /  96.1 km/h 65 % 0.0 in /  0 mm
06:30 10.3 °F /  -12.1 °C 4.0 °F /  -15.6 °C 990.1 in /  33524.8 hPa West 42.2 mph /  67.9 km/h 55.0 mph /  88.5 km/h 65 % 0.0 in /  0 mm
06:35 10.3 °F /  -12.1 °C 4.0 °F /  -15.6 °C 990.1 in /  33524.8 hPa West 22.4 mph /  36 km/h 49.2 mph /  79.2 km/h 66 % 0.0 in /  0 mm
06:38 10.2 °F /  -12.1 °C 5.0 °F /  -15 °C 990.1 in /  33524.8 hPa WSW 24.5 mph /  39.4 km/h 49.2 mph /  79.2 km/h 68 % 0.0 in /  0 mm
06:43 9.2 °F /  -12.7 °C 5.0 °F /  -15 °C 991.1 in /  33558.6 hPa West 38.1 mph /  61.3 km/h 51.5 mph /  82.9 km/h 72 % 0.0 in /  0 mm
06:44 9.0 °F /  -12.8 °C 4.0 °F /  -15.6 °C 991.1 in /  33558.6 hPa SSW 24.8 mph /  39.9 km/h 51.5 mph /  82.9 km/h 71 % 0.0 in /  0 mm
06:50 8.4 °F /  -13.1 °C 4.0 °F /  -15.6 °C 991.1 in /  33558.6 hPa West 16.9 mph /  27.2 km/h 51.5 mph /  82.9 km/h 73 % 0.0 in /  0 mm
06:52 8.2 °F /  -13.2 °C 4.0 °F /  -15.6 °C 991.1 in /  33558.6 hPa West 31.7 mph /  51 km/h 38.1 mph /  61.3 km/h 74 % 0.0 in /  0 mm
06:57 8.0 °F /  -13.3 °C 4.0 °F /  -15.6 °C 990.1 in /  33524.8 hPa West 23.3 mph /  37.5 km/h 37.5 mph /  60.3 km/h 76 % 0.0 in /  0 mm
06:58 8.0 °F /  -13.3 °C 4.0 °F /  -15.6 °C 990.1 in /  33524.8 hPa WSW 36.4 mph /  58.6 km/h 37.5 mph /  60.3 km/h 76 % 0.0 in /  0 mm
07:02 7.9 °F /  -13.4 °C 4.0 °F /  -15.6 °C 990.1 in /  33524.8 hPa West 17.2 mph /  27.7 km/h 40.7 mph /  65.5 km/h 78 % 0.0 in /  0 mm
07:04 7.9 °F /  -13.4 °C 4.0 °F /  -15.6 °C 990.1 in /  33524.8 hPa WNW 20.9 mph /  33.6 km/h 40.7 mph /  65.5 km/h 78 % 0.0 in /  0 mm
07:09 7.9 °F /  -13.4 °C 5.0 °F /  -15 °C 990.1 in /  33524.8 hPa WNW 13.0 mph /  20.9 km/h 40.7 mph /  65.5 km/h 79 % 0.0 in /  0 mm
07:14 7.9 °F /  -13.4 °C 5.0 °F /  -15 °C 990.1 in /  33524.8 hPa West 28.5 mph /  45.9 km/h 28.5 mph /  45.9 km/h 80 % 0.0 in /  0 mm
07:19 7.9 °F /  -13.4 °C 5.0 °F /  -15 °C 990.1 in /  33524.8 hPa West 32.0 mph /  51.5 km/h 32.0 mph /  51.5 km/h 81 % 0.0 in /  0 mm
07:20 7.9 °F /  -13.4 °C 5.0 °F /  -15 °C 990.1 in /  33524.8 hPa West 24.8 mph /  39.9 km/h 32.0 mph /  51.5 km/h 81 % 0.0 in /  0 mm
07:25 7.9 °F /  -13.4 °C 5.0 °F /  -15 °C 990.1 in /  33524.8 hPa WSW 27.0 mph /  43.5 km/h 35.2 mph /  56.6 km/h 81 % 0.0 in /  0 mm
07:30 7.8 °F /  -13.4 °C 5.0 °F /  -15 °C 990.1 in /  33524.8 hPa West 17.7 mph /  28.5 km/h 35.2 mph /  56.6 km/h 82 % 0.0 in /  0 mm
07:31 7.8 °F /  -13.4 °C 5.0 °F /  -15 °C 990.1 in /  33524.8 hPa West 20.6 mph /  33.2 km/h 35.2 mph /  56.6 km/h 82 % 0.0 in /  0 mm
07:32 7.8 °F /  -13.4 °C 5.0 °F /  -15 °C 990.1 in /  33524.8 hPa West 16.6 mph /  26.7 km/h 35.2 mph /  56.6 km/h 82 % 0.0 in /  0 mm
07:36 7.9 °F /  -13.4 °C 5.0 °F /  -15 °C 990.1 in /  33524.8 hPa WNW 38.1 mph /  61.3 km/h 38.1 mph /  61.3 km/h 82 % 0.0 in /  0 mm
07:41 8.2 °F /  -13.2 °C 5.0 °F /  -15 °C 991.1 in /  33558.6 hPa WSW 33.1 mph /  53.3 km/h 50.4 mph /  81.1 km/h 78 % 0.0 in /  0 mm
07:42 8.3 °F /  -13.2 °C 5.0 °F /  -15 °C 991.1 in /  33558.6 hPa West 39.6 mph /  63.7 km/h 50.4 mph /  81.1 km/h 78 % 0.0 in /  0 mm
07:47 8.4 °F /  -13.1 °C 5.0 °F /  -15 °C 991.1 in /  33558.6 hPa WSW 38.5 mph /  62 km/h 50.4 mph /  81.1 km/h 77 % 0.0 in /  0 mm
07:48 8.5 °F /  -13.1 °C 5.0 °F /  -15 °C 991.1 in /  33558.6 hPa WSW 38.9 mph /  62.6 km/h 50.4 mph /  81.1 km/h 76 % 0.0 in /  0 mm
07:53 8.6 °F /  -13 °C 5.0 °F /  -15 °C 991.1 in /  33558.6 hPa West 28.5 mph /  45.9 km/h 51.8 mph /  83.4 km/h 76 % 0.0 in /  0 mm
07:58 8.7 °F /  -12.9 °C 5.0 °F /  -15 °C 991.1 in /  33558.6 hPa West 36.7 mph /  59.1 km/h 51.8 mph /  83.4 km/h 76 % 0.0 in /  0 mm
08:00 8.7 °F /  -12.9 °C 5.0 °F /  -15 °C 991.1 in /  33558.6 hPa West 31.7 mph /  51 km/h 51.8 mph /  83.4 km/h 76 % 0.0 in /  0 mm
08:05 8.7 °F /  -12.9 °C 5.0 °F /  -15 °C 991.1 in /  33558.6 hPa West 33.5 mph /  53.9 km/h 52.1 mph /  83.8 km/h 75 % 0.0 in /  0 mm
08:10 8.8 °F /  -12.9 °C 4.0 °F /  -15.6 °C 991.1 in /  33558.6 hPa West 37.8 mph /  60.8 km/h 53.3 mph /  85.8 km/h 71 % 0.0 in /  0 mm
08:13 8.9 °F /  -12.8 °C 4.0 °F /  -15.6 °C 991.1 in /  33558.6 hPa WSW 47.9 mph /  77.1 km/h 53.3 mph /  85.8 km/h 70 % 0.0 in /  0 mm
08:18 8.9 °F /  -12.8 °C 4.0 °F /  -15.6 °C 991.1 in /  33558.6 hPa West 37.5 mph /  60.3 km/h 53.3 mph /  85.8 km/h 70 % 0.0 in /  0 mm
08:19 8.9 °F /  -12.8 °C 4.0 °F /  -15.6 °C 991.1 in /  33558.6 hPa West 41.7 mph /  67.1 km/h 52.6 mph /  84.6 km/h 70 % 0.0 in /  0 mm
08:22 8.9 °F /  -12.8 °C 4.0 °F /  -15.6 °C 991.1 in /  33558.6 hPa WSW 29.1 mph /  46.8 km/h 52.6 mph /  84.6 km/h 70 % 0.0 in /  0 mm
08:27 8.8 °F /  -12.9 °C 4.0 °F /  -15.6 °C 992.1 in /  33592.5 hPa West 51.2 mph /  82.4 km/h 51.2 mph /  82.4 km/h 71 % 0.0 in /  0 mm
08:32 8.8 °F /  -12.9 °C 4.0 °F /  -15.6 °C 992.1 in /  33592.5 hPa West 20.1 mph /  32.3 km/h 51.5 mph /  82.9 km/h 68 % 0.0 in /  0 mm
08:36 8.8 °F /  -12.9 °C 4.0 °F /  -15.6 °C 992.1 in /  33592.5 hPa West 28.0 mph /  45.1 km/h 51.5 mph /  82.9 km/h 68 % 0.0 in /  0 mm
08:39 8.7 °F /  -12.9 °C 3.0 °F /  -16.1 °C 992.1 in /  33592.5 hPa WSW 39.3 mph /  63.2 km/h 51.5 mph /  82.9 km/h 69 % 0.0 in /  0 mm
08:42 8.6 °F /  -13 °C 3.0 °F /  -16.1 °C 993.1 in /  33626.4 hPa West 31.4 mph /  50.5 km/h 46.8 mph /  75.3 km/h 69 % 0.0 in /  0 mm
08:47 8.5 °F /  -13.1 °C 3.0 °F /  -16.1 °C 993.1 in /  33626.4 hPa WSW 24.8 mph /  39.9 km/h 44.6 mph /  71.8 km/h 69 % 0.0 in /  0 mm
08:50 8.5 °F /  -13.1 °C 3.0 °F /  -16.1 °C 993.1 in /  33626.4 hPa WNW 31.7 mph /  51 km/h 51.8 mph /  83.4 km/h 69 % 0.0 in /  0 mm
08:55 8.4 °F /  -13.1 °C 3.0 °F /  -16.1 °C 993.1 in /  33626.4 hPa West 44.2 mph /  71.1 km/h 52.6 mph /  84.6 km/h 70 % 0.0 in /  0 mm
09:01 8.5 °F /  -13.1 °C 3.0 °F /  -16.1 °C 993.1 in /  33626.4 hPa West 53.3 mph /  85.8 km/h 53.3 mph /  85.8 km/h 69 % 0.0 in /  0 mm
09:06 8.4 °F /  -13.1 °C 3.0 °F /  -16.1 °C 993.1 in /  33626.4 hPa WSW 28.0 mph /  45.1 km/h 53.3 mph /  85.8 km/h 70 % 0.0 in /  0 mm
09:10 8.4 °F /  -13.1 °C 3.0 °F /  -16.1 °C 993.1 in /  33626.4 hPa West 36.7 mph /  59.1 km/h 53.6 mph /  86.3 km/h 70 % 0.0 in /  0 mm
09:16 8.5 °F /  -13.1 °C 3.0 °F /  -16.1 °C 993.1 in /  33626.4 hPa West 19.8 mph /  31.9 km/h 58.2 mph /  93.7 km/h 69 % 0.0 in /  0 mm
09:18 8.4 °F /  -13.1 °C 3.0 °F /  -16.1 °C 993.1 in /  33626.4 hPa West 25.9 mph /  41.7 km/h 58.2 mph /  93.7 km/h 70 % 0.0 in /  0 mm
09:24 8.5 °F /  -13.1 °C 3.0 °F /  -16.1 °C 993.1 in /  33626.4 hPa West 35.6 mph /  57.3 km/h 52.6 mph /  84.6 km/h 69 % 0.0 in /  0 mm
09:27 8.5 °F /  -13.1 °C 3.0 °F /  -16.1 °C 993.1 in /  33626.4 hPa West 20.1 mph /  32.3 km/h 52.9 mph /  85.1 km/h 69 % 0.0 in /  0 mm
09:30 8.5 °F /  -13.1 °C 3.0 °F /  -16.1 °C 993.1 in /  33626.4 hPa West 28.5 mph /  45.9 km/h 52.9 mph /  85.1 km/h 69 % 0.0 in /  0 mm
09:34 8.5 °F /  -13.1 °C 3.0 °F /  -16.1 °C 993.1 in /  33626.4 hPa West 20.9 mph /  33.6 km/h 52.9 mph /  85.1 km/h 69 % 0.0 in /  0 mm
09:36 8.5 °F /  -13.1 °C 3.0 °F /  -16.1 °C 993.1 in /  33626.4 hPa WSW 44.6 mph /  71.8 km/h 52.9 mph /  85.1 km/h 69 % 0.0 in /  0 mm
09:41 8.5 °F /  -13.1 °C 3.0 °F /  -16.1 °C 994.1 in /  33660.2 hPa WSW 44.2 mph /  71.1 km/h 44.6 mph /  71.8 km/h 69 % 0.0 in /  0 mm
09:46 8.5 °F /  -13.1 °C 3.0 °F /  -16.1 °C 994.1 in /  33660.2 hPa West 36.7 mph /  59.1 km/h 44.6 mph /  71.8 km/h 69 % 0.0 in /  0 mm
09:49 8.5 °F /  -13.1 °C 3.0 °F /  -16.1 °C 994.1 in /  33660.2 hPa WSW 41.7 mph /  67.1 km/h 51.8 mph /  83.4 km/h 69 % 0.0 in /  0 mm
09:54 8.6 °F /  -13 °C 3.0 °F /  -16.1 °C 994.1 in /  33660.2 hPa West 39.3 mph /  63.2 km/h 56.5 mph /  90.9 km/h 69 % 0.0 in /  0 mm
09:57 8.6 °F /  -13 °C 3.0 °F /  -16.1 °C 994.1 in /  33660.2 hPa WSW 21.6 mph /  34.8 km/h 56.5 mph /  90.9 km/h 68 % 0.0 in /  0 mm
10:02 8.6 °F /  -13 °C 3.0 °F /  -16.1 °C 994.1 in /  33660.2 hPa West 43.6 mph /  70.2 km/h 48.9 mph /  78.7 km/h 69 % 0.0 in /  0 mm
10:07 8.7 °F /  -12.9 °C 3.0 °F /  -16.1 °C 994.1 in /  33660.2 hPa WSW 38.1 mph /  61.3 km/h 48.9 mph /  78.7 km/h 69 % 0.0 in /  0 mm
10:08 8.7 °F /  -12.9 °C 4.0 °F /  -15.6 °C 994.1 in /  33660.2 hPa West 45.1 mph /  72.6 km/h 48.9 mph /  78.7 km/h 70 % 0.0 in /  0 mm
10:13 8.8 °F /  -12.9 °C 4.0 °F /  -15.6 °C 994.1 in /  33660.2 hPa West 37.0 mph /  59.5 km/h 50.0 mph /  80.5 km/h 70 % 0.0 in /  0 mm
10:19 8.9 °F /  -12.8 °C 4.0 °F /  -15.6 °C 994.1 in /  33660.2 hPa West 39.6 mph /  63.7 km/h 50.0 mph /  80.5 km/h 70 % 0.0 in /  0 mm
10:20 8.9 °F /  -12.8 °C 4.0 °F /  -15.6 °C 994.1 in /  33660.2 hPa West 51.5 mph /  82.9 km/h 51.5 mph /  82.9 km/h 70 % 0.0 in /  0 mm
10:22 9.0 °F /  -12.8 °C 4.0 °F /  -15.6 °C 994.1 in /  33660.2 hPa West 38.9 mph /  62.6 km/h 51.5 mph /  82.9 km/h 70 % 0.0 in /  0 mm
10:27 9.0 °F /  -12.8 °C 4.0 °F /  -15.6 °C 995.1 in /  33694.1 hPa West 38.9 mph /  62.6 km/h 51.5 mph /  82.9 km/h 70 % 0.0 in /  0 mm
10:32 8.9 °F /  -12.8 °C 4.0 °F /  -15.6 °C 995.1 in /  33694.1 hPa West 51.8 mph /  83.4 km/h 52.1 mph /  83.8 km/h 70 % 0.0 in /  0 mm
10:33 8.9 °F /  -12.8 °C 4.0 °F /  -15.6 °C 995.1 in /  33694.1 hPa WSW 47.5 mph /  76.4 km/h 52.1 mph /  83.8 km/h 70 % 0.0 in /  0 mm
10:38 9.1 °F /  -12.7 °C 4.0 °F /  -15.6 °C 995.1 in /  33694.1 hPa West 47.9 mph /  77.1 km/h 52.1 mph /  83.8 km/h 70 % 0.0 in /  0 mm
10:43 9.3 °F /  -12.6 °C 4.0 °F /  -15.6 °C 995.1 in /  33694.1 hPa West 36.4 mph /  58.6 km/h 52.6 mph /  84.6 km/h 68 % 0.0 in /  0 mm
10:48 9.3 °F /  -12.6 °C 4.0 °F /  -15.6 °C 995.1 in /  33694.1 hPa West 36.4 mph /  58.6 km/h 52.6 mph /  84.6 km/h 68 % 0.0 in /  0 mm
10:52 9.3 °F /  -12.6 °C 4.0 °F /  -15.6 °C 995.1 in /  33694.1 hPa WSW 42.2 mph /  67.9 km/h 52.1 mph /  83.8 km/h 68 % 0.0 in /  0 mm
10:57 9.3 °F /  -12.6 °C 4.0 °F /  -15.6 °C 995.1 in /  33694.1 hPa WSW 50.0 mph /  80.5 km/h 52.1 mph /  83.8 km/h 67 % 0.0 in /  0 mm
11:02 9.3 °F /  -12.6 °C 4.0 °F /  -15.6 °C 995.1 in /  33694.1 hPa West 48.3 mph /  77.7 km/h 50.0 mph /  80.5 km/h 68 % 0.0 in /  0 mm
11:05 9.3 °F /  -12.6 °C 4.0 °F /  -15.6 °C 995.1 in /  33694.1 hPa WSW 32.8 mph /  52.8 km/h 55.3 mph /  89 km/h 67 % 0.0 in /  0 mm
11:08 9.3 °F /  -12.6 °C 4.0 °F /  -15.6 °C 995.1 in /  33694.1 hPa West 31.7 mph /  51 km/h 56.5 mph /  90.9 km/h 67 % 0.0 in /  0 mm
11:11 9.4 °F /  -12.6 °C 4.0 °F /  -15.6 °C 996.2 in /  33731.3 hPa WSW 40.7 mph /  65.5 km/h 56.5 mph /  90.9 km/h 67 % 0.0 in /  0 mm
11:14 9.4 °F /  -12.6 °C 4.0 °F /  -15.6 °C 996.2 in /  33731.3 hPa West 38.5 mph /  62 km/h 56.5 mph /  90.9 km/h 68 % 0.0 in /  0 mm
11:17 9.5 °F /  -12.5 °C 4.0 °F /  -15.6 °C 996.2 in /  33731.3 hPa West 45.7 mph /  73.5 km/h 52.1 mph /  83.8 km/h 68 % 0.0 in /  0 mm
11:22 9.5 °F /  -12.5 °C 4.0 °F /  -15.6 °C 996.2 in /  33731.3 hPa West 36.0 mph /  57.9 km/h 52.1 mph /  83.8 km/h 68 % 0.0 in /  0 mm
11:23 9.5 °F /  -12.5 °C 4.0 °F /  -15.6 °C 996.2 in /  33731.3 hPa WSW 31.4 mph /  50.5 km/h 52.1 mph /  83.8 km/h 68 % 0.0 in /  0 mm
11:29 9.5 °F /  -12.5 °C 4.0 °F /  -15.6 °C 996.8 in /  33751.6 hPa WSW 26.2 mph /  42.2 km/h 45.1 mph /  72.6 km/h 68 % 0.0 in /  0 mm
11:30 9.5 °F /  -12.5 °C 4.0 °F /  -15.6 °C 996.8 in /  33751.6 hPa WSW 24.5 mph /  39.4 km/h 45.1 mph /  72.6 km/h 68 % 0.0 in /  0 mm
11:35 9.5 °F /  -12.5 °C 4.0 °F /  -15.6 °C 996.8 in /  33751.6 hPa West 36.0 mph /  57.9 km/h 46.5 mph /  74.8 km/h 69 % 0.0 in /  0 mm
11:40 9.6 °F /  -12.4 °C 4.0 °F /  -15.6 °C 996.8 in /  33751.6 hPa WNW 38.9 mph /  62.6 km/h 46.5 mph /  74.8 km/h 67 % 0.0 in /  0 mm
11:43 9.7 °F /  -12.4 °C 4.0 °F /  -15.6 °C 996.8 in /  33751.6 hPa WNW 38.9 mph /  62.6 km/h 47.5 mph /  76.4 km/h 68 % 0.0 in /  0 mm
11:44 9.7 °F /  -12.4 °C 4.0 °F /  -15.6 °C 996.8 in /  33751.6 hPa WSW 37.0 mph /  59.5 km/h 47.5 mph /  76.4 km/h 68 % 0.0 in /  0 mm
11:49 9.7 °F /  -12.4 °C 4.0 °F /  -15.6 °C 996.8 in /  33751.6 hPa WSW 48.3 mph /  77.7 km/h 48.3 mph /  77.7 km/h 67 % 0.0 in /  0 mm
11:50 9.7 °F /  -12.4 °C 4.0 °F /  -15.6 °C 996.8 in /  33751.6 hPa WNW 20.6 mph /  33.2 km/h 48.3 mph /  77.7 km/h 67 % 0.0 in /  0 mm
11:58 9.7 °F /  -12.4 °C 4.0 °F /  -15.6 °C 996.8 in /  33751.6 hPa WSW 37.5 mph /  60.3 km/h 54.1 mph /  87.1 km/h 65 % 0.0 in /  0 mm
12:04 9.7 °F /  -12.4 °C 4.0 °F /  -15.6 °C 996.8 in /  33751.6 hPa West 35.6 mph /  57.3 km/h 59.1 mph /  95.1 km/h 66 % 0.0 in /  0 mm
12:08 9.7 °F /  -12.4 °C 3.0 °F /  -16.1 °C 996.8 in /  33751.6 hPa WNW 23.3 mph /  37.5 km/h 59.1 mph /  95.1 km/h 64 % 0.0 in /  0 mm
12:18 9.7 °F /  -12.4 °C 4.0 °F /  -15.6 °C 996.8 in /  33751.6 hPa West 36.4 mph /  58.6 km/h 48.9 mph /  78.7 km/h 66 % 0.0 in /  0 mm
12:19 9.8 °F /  -12.3 °C 4.0 °F /  -15.6 °C 996.8 in /  33751.6 hPa West 25.6 mph /  41.2 km/h 48.9 mph /  78.7 km/h 67 % 0.0 in /  0 mm
12:24 9.7 °F /  -12.4 °C 4.0 °F /  -15.6 °C 996.8 in /  33751.6 hPa WNW 20.9 mph /  33.6 km/h 45.7 mph /  73.5 km/h 67 % 0.0 in /  0 mm
12:26 9.7 °F /  -12.4 °C 4.0 °F /  -15.6 °C 997.9 in /  33788.9 hPa West 48.9 mph /  78.7 km/h 48.9 mph /  78.7 km/h 66 % 0.0 in /  0 mm
12:34 9.8 °F /  -12.3 °C 4.0 °F /  -15.6 °C 997.9 in /  33788.9 hPa WSW 49.7 mph /  80 km/h 51.5 mph /  82.9 km/h 66 % 0.0 in /  0 mm
12:40 9.7 °F /  -12.4 °C 4.0 °F /  -15.6 °C 997.9 in /  33788.9 hPa West 49.2 mph /  79.2 km/h 51.8 mph /  83.4 km/h 66 % 0.0 in /  0 mm
12:46 9.7 °F /  -12.4 °C 4.0 °F /  -15.6 °C 997.9 in /  33788.9 hPa West 21.2 mph /  34.1 km/h 49.2 mph /  79.2 km/h 66 % 0.0 in /  0 mm
12:51 9.8 °F /  -12.3 °C 4.0 °F /  -15.6 °C 997.9 in /  33788.9 hPa WSW 40.7 mph /  65.5 km/h 46.5 mph /  74.8 km/h 66 % 0.0 in /  0 mm
12:56 9.8 °F /  -12.3 °C 4.0 °F /  -15.6 °C 997.9 in /  33788.9 hPa West 17.7 mph /  28.5 km/h 46.5 mph /  74.8 km/h 66 % 0.0 in /  0 mm
12:57 9.8 °F /  -12.3 °C 4.0 °F /  -15.6 °C 997.9 in /  33788.9 hPa West 17.7 mph /  28.5 km/h 46.5 mph /  74.8 km/h 66 % 0.0 in /  0 mm
13:02 9.9 °F /  -12.3 °C 5.0 °F /  -15 °C 997.9 in /  33788.9 hPa West 33.8 mph /  54.4 km/h 45.7 mph /  73.5 km/h 68 % 0.0 in /  0 mm
13:06 9.8 °F /  -12.3 °C 4.0 °F /  -15.6 °C 997.9 in /  33788.9 hPa West 41.0 mph /  66 km/h 41.0 mph /  66 km/h 68 % 0.0 in /  0 mm
13:10 9.8 °F /  -12.3 °C 4.0 °F /  -15.6 °C 997.9 in /  33788.9 hPa West 29.1 mph /  46.8 km/h 44.6 mph /  71.8 km/h 69 % 0.0 in /  0 mm
13:12 9.8 °F /  -12.3 °C 5.0 °F /  -15 °C 997.9 in /  33788.9 hPa West 37.0 mph /  59.5 km/h 44.6 mph /  71.8 km/h 70 % 0.0 in /  0 mm
13:17 9.8 °F /  -12.3 °C 5.0 °F /  -15 °C 997.9 in /  33788.9 hPa WSW 30.6 mph /  49.2 km/h 51.8 mph /  83.4 km/h 70 % 0.0 in /  0 mm
13:20 9.7 °F /  -12.4 °C 5.0 °F /  -15 °C 997.9 in /  33788.9 hPa WSW 29.1 mph /  46.8 km/h 51.8 mph /  83.4 km/h 70 % 0.0 in /  0 mm
13:24 9.7 °F /  -12.4 °C 4.0 °F /  -15.6 °C 997.9 in /  33788.9 hPa WSW 36.7 mph /  59.1 km/h 49.2 mph /  79.2 km/h 69 % 0.0 in /  0 mm
13:29 9.7 °F /  -12.4 °C 5.0 °F /  -15 °C 998.9 in /  33822.8 hPa West 27.0 mph /  43.5 km/h 46.0 mph /  74 km/h 71 % 0.0 in /  0 mm
13:31 9.7 °F /  -12.4 °C 5.0 °F /  -15 °C 998.9 in /  33822.8 hPa WSW 28.0 mph /  45.1 km/h 42.5 mph /  68.4 km/h 71 % 0.0 in /  0 mm
13:36 9.7 °F /  -12.4 °C 5.0 °F /  -15 °C 998.9 in /  33822.8 hPa WNW 33.5 mph /  53.9 km/h 42.8 mph /  68.9 km/h 70 % 0.0 in /  0 mm
13:41 9.7 °F /  -12.4 °C 5.0 °F /  -15 °C 997.9 in /  33788.9 hPa West 39.3 mph /  63.2 km/h 43.6 mph /  70.2 km/h 70 % 0.0 in /  0 mm
13:43 9.7 °F /  -12.4 °C 5.0 °F /  -15 °C 997.9 in /  33788.9 hPa West 42.5 mph /  68.4 km/h 43.6 mph /  70.2 km/h 70 % 0.0 in /  0 mm
13:48 9.8 °F /  -12.3 °C 5.0 °F /  -15 °C 997.9 in /  33788.9 hPa West 28.5 mph /  45.9 km/h 44.6 mph /  71.8 km/h 71 % 0.0 in /  0 mm
13:49 9.8 °F /  -12.3 °C 5.0 °F /  -15 °C 997.9 in /  33788.9 hPa WNW 39.6 mph /  63.7 km/h 44.6 mph /  71.8 km/h 71 % 0.0 in /  0 mm
13:53 9.9 °F /  -12.3 °C 5.0 °F /  -15 °C 997.9 in /  33788.9 hPa West 36.4 mph /  58.6 km/h 44.6 mph /  71.8 km/h 71 % 0.0 in /  0 mm
13:55 9.9 °F /  -12.3 °C 5.0 °F /  -15 °C 997.9 in /  33788.9 hPa West 28.5 mph /  45.9 km/h 44.2 mph /  71.1 km/h 71 % 0.0 in /  0 mm
14:00 9.9 °F /  -12.3 °C 5.0 °F /  -15 °C 999.9 in /  33856.6 hPa West 34.6 mph /  55.7 km/h 44.6 mph /  71.8 km/h 70 % 0.0 in /  0 mm
14:04 10.0 °F /  -12.2 °C 5.0 °F /  -15 °C 999.9 in /  33856.6 hPa WSW 25.9 mph /  41.7 km/h 52.6 mph /  84.6 km/h 71 % 0.0 in /  0 mm
14:09 10.0 °F /  -12.2 °C 5.0 °F /  -15 °C 999.9 in /  33856.6 hPa WSW 33.1 mph /  53.3 km/h 52.6 mph /  84.6 km/h 71 % 0.0 in /  0 mm
14:14 10.0 °F /  -12.2 °C 5.0 °F /  -15 °C 998.9 in /  33822.8 hPa West 35.2 mph /  56.6 km/h 49.2 mph /  79.2 km/h 71 % 0.0 in /  0 mm
14:17 10.0 °F /  -12.2 °C 5.0 °F /  -15 °C 998.9 in /  33822.8 hPa West 32.3 mph /  52 km/h 49.2 mph /  79.2 km/h 71 % 0.0 in /  0 mm
14:19 10.0 °F /  -12.2 °C 6.0 °F /  -14.4 °C 998.9 in /  33822.8 hPa WSW 37.5 mph /  60.3 km/h 49.2 mph /  79.2 km/h 72 % 0.0 in /  0 mm
14:24 10.0 °F /  -12.2 °C 6.0 °F /  -14.4 °C 998.9 in /  33822.8 hPa WSW 33.1 mph /  53.3 km/h 49.7 mph /  80 km/h 72 % 0.0 in /  0 mm
14:29 10.1 °F /  -12.2 °C 5.0 °F /  -15 °C 998.9 in /  33822.8 hPa West 43.9 mph /  70.6 km/h 49.7 mph /  80 km/h 71 % 0.0 in /  0 mm
14:31 10.1 °F /  -12.2 °C 5.0 °F /  -15 °C 998.9 in /  33822.8 hPa West 23.8 mph /  38.3 km/h 49.7 mph /  80 km/h 71 % 0.0 in /  0 mm
14:32 10.2 °F /  -12.1 °C 6.0 °F /  -14.4 °C 998.9 in /  33822.8 hPa WSW 31.7 mph /  51 km/h 49.7 mph /  80 km/h 72 % 0.0 in /  0 mm
14:37 10.2 °F /  -12.1 °C 6.0 °F /  -14.4 °C 998.9 in /  33822.8 hPa West 41.0 mph /  66 km/h 48.6 mph /  78.2 km/h 72 % 0.0 in /  0 mm
14:42 10.1 °F /  -12.2 °C 5.0 °F /  -15 °C 998.9 in /  33822.8 hPa West 38.1 mph /  61.3 km/h 43.1 mph /  69.4 km/h 71 % 0.0 in /  0 mm
14:45 10.1 °F /  -12.2 °C 5.0 °F /  -15 °C 998.9 in /  33822.8 hPa West 36.4 mph /  58.6 km/h 48.9 mph /  78.7 km/h 71 % 0.0 in /  0 mm
14:46 10.1 °F /  -12.2 °C 5.0 °F /  -15 °C 998.9 in /  33822.8 hPa West 30.2 mph /  48.6 km/h 48.9 mph /  78.7 km/h 71 % 0.0 in /  0 mm
14:50 10.2 °F /  -12.1 °C 6.0 °F /  -14.4 °C 998.9 in /  33822.8 hPa West 33.5 mph /  53.9 km/h 48.9 mph /  78.7 km/h 72 % 0.0 in /  0 mm
14:55 10.2 °F /  -12.1 °C 6.0 °F /  -14.4 °C 998.9 in /  33822.8 hPa West 31.7 mph /  51 km/h 53.6 mph /  86.3 km/h 71 % 0.0 in /  0 mm
15:00 10.1 °F /  -12.2 °C 6.0 °F /  -14.4 °C 998.9 in /  33822.8 hPa West 43.6 mph /  70.2 km/h 53.6 mph /  86.3 km/h 72 % 0.0 in /  0 mm
15:01 10.1 °F /  -12.2 °C 6.0 °F /  -14.4 °C 998.9 in /  33822.8 hPa West 24.8 mph /  39.9 km/h 53.6 mph /  86.3 km/h 72 % 0.0 in /  0 mm
15:02 10.1 °F /  -12.2 °C 6.0 °F /  -14.4 °C 998.9 in /  33822.8 hPa West 38.5 mph /  62 km/h 53.6 mph /  86.3 km/h 72 % 0.0 in /  0 mm
15:07 10.1 °F /  -12.2 °C 6.0 °F /  -14.4 °C 998.9 in /  33822.8 hPa WNW 19.5 mph /  31.4 km/h 48.6 mph /  78.2 km/h 72 % 0.0 in /  0 mm
15:09 10.1 °F /  -12.2 °C 5.0 °F /  -15 °C 998.9 in /  33822.8 hPa West 36.4 mph /  58.6 km/h 56.5 mph /  90.9 km/h 71 % 0.0 in /  0 mm
15:14 10.1 °F /  -12.2 °C 6.0 °F /  -14.4 °C 999.9 in /  33856.6 hPa WSW 35.6 mph /  57.3 km/h 56.5 mph /  90.9 km/h 72 % 0.0 in /  0 mm
15:15 10.1 °F /  -12.2 °C 6.0 °F /  -14.4 °C 999.9 in /  33856.6 hPa West 42.8 mph /  68.9 km/h 56.5 mph /  90.9 km/h 73 % 0.0 in /  0 mm
15:17 10.1 °F /  -12.2 °C 6.0 °F /  -14.4 °C 999.9 in /  33856.6 hPa WSW 36.4 mph /  58.6 km/h 56.5 mph /  90.9 km/h 72 % 0.0 in /  0 mm
15:25 10.1 °F /  -12.2 °C 6.0 °F /  -14.4 °C 999.9 in /  33856.6 hPa West 37.5 mph /  60.3 km/h 52.9 mph /  85.1 km/h 72 % 0.0 in /  0 mm
15:27 10.1 °F /  -12.2 °C 6.0 °F /  -14.4 °C 1000.9 in /  33890.5 hPa West 24.5 mph /  39.4 km/h 52.9 mph /  85.1 km/h 72 % 0.0 in /  0 mm
15:32 10.1 °F /  -12.2 °C 6.0 °F /  -14.4 °C 1000.9 in /  33890.5 hPa WNW 37.8 mph /  60.8 km/h 49.2 mph /  79.2 km/h 72 % 0.0 in /  0 mm
15:35 10.1 °F /  -12.2 °C 6.0 °F /  -14.4 °C 1000.9 in /  33890.5 hPa WSW 37.8 mph /  60.8 km/h 49.2 mph /  79.2 km/h 72 % 0.0 in /  0 mm
15:38 10.0 °F /  -12.2 °C 6.0 °F /  -14.4 °C 1000.9 in /  33890.5 hPa WSW 32.8 mph /  52.8 km/h 45.7 mph /  73.5 km/h 72 % 0.0 in /  0 mm
15:40 10.0 °F /  -12.2 °C 6.0 °F /  -14.4 °C 1000.9 in /  33890.5 hPa West 35.2 mph /  56.6 km/h 42.2 mph /  67.9 km/h 73 % 0.0 in /  0 mm
15:45 10.0 °F /  -12.2 °C 6.0 °F /  -14.4 °C 1000.9 in /  33890.5 hPa West 28.8 mph /  46.3 km/h 42.2 mph /  67.9 km/h 73 % 0.0 in /  0 mm
15:46 10.0 °F /  -12.2 °C 6.0 °F /  -14.4 °C 1000.9 in /  33890.5 hPa West 26.2 mph /  42.2 km/h 42.2 mph /  67.9 km/h 73 % 0.0 in /  0 mm
15:51 10.0 °F /  -12.2 °C 6.0 °F /  -14.4 °C 1000.9 in /  33890.5 hPa WSW 36.0 mph /  57.9 km/h 46.5 mph /  74.8 km/h 73 % 0.0 in /  0 mm
15:57 10.0 °F /  -12.2 °C 6.0 °F /  -14.4 °C 999.9 in /  33856.6 hPa West 38.9 mph /  62.6 km/h 46.5 mph /  74.8 km/h 72 % 0.0 in /  0 mm
16:00 10.0 °F /  -12.2 °C 6.0 °F /  -14.4 °C 999.9 in /  33856.6 hPa SW 43.9 mph /  70.6 km/h 45.1 mph /  72.6 km/h 73 % 0.0 in /  0 mm
16:04 10.0 °F /  -12.2 °C 6.0 °F /  -14.4 °C 999.9 in /  33856.6 hPa West 30.9 mph /  49.7 km/h 44.6 mph /  71.8 km/h 73 % 0.0 in /  0 mm
16:09 9.9 °F /  -12.3 °C 6.0 °F /  -14.4 °C 999.9 in /  33856.6 hPa West 28.0 mph /  45.1 km/h 47.5 mph /  76.4 km/h 74 % 0.0 in /  0 mm
16:13 9.8 °F /  -12.3 °C 6.0 °F /  -14.4 °C 1000.9 in /  33890.5 hPa WSW 27.4 mph /  44.1 km/h 47.9 mph /  77.1 km/h 74 % 0.0 in /  0 mm
16:18 9.7 °F /  -12.4 °C 6.0 °F /  -14.4 °C 1000.9 in /  33890.5 hPa West 40.4 mph /  65 km/h 47.9 mph /  77.1 km/h 74 % 0.0 in /  0 mm
16:20 9.7 °F /  -12.4 °C 6.0 °F /  -14.4 °C 1000.9 in /  33890.5 hPa WSW 32.8 mph /  52.8 km/h 47.9 mph /  77.1 km/h 74 % 0.0 in /  0 mm
16:24 9.7 °F /  -12.4 °C 6.0 °F /  -14.4 °C 1000.9 in /  33890.5 hPa WSW 20.1 mph /  32.3 km/h 46.5 mph /  74.8 km/h 74 % 0.0 in /  0 mm
16:29 9.7 °F /  -12.4 °C 6.0 °F /  -14.4 °C 1000.9 in /  33890.5 hPa WSW 30.9 mph /  49.7 km/h 45.1 mph /  72.6 km/h 74 % 0.0 in /  0 mm
16:32 9.7 °F /  -12.4 °C 6.0 °F /  -14.4 °C 1000.9 in /  33890.5 hPa West 20.1 mph /  32.3 km/h 45.1 mph /  72.6 km/h 74 % 0.0 in /  0 mm
16:41 9.7 °F /  -12.4 °C 6.0 °F /  -14.4 °C 1000.9 in /  33890.5 hPa WSW 21.2 mph /  34.1 km/h 36.0 mph /  57.9 km/h 74 % 0.0 in /  0 mm
16:42 9.7 °F /  -12.4 °C 6.0 °F /  -14.4 °C 1000.9 in /  33890.5 hPa WSW 29.9 mph /  48.1 km/h 36.0 mph /  57.9 km/h 74 % 0.0 in /  0 mm
16:46 9.7 °F /  -12.4 °C 6.0 °F /  -14.4 °C 1000.9 in /  33890.5 hPa WSW 36.4 mph /  58.6 km/h 40.7 mph /  65.5 km/h 74 % 0.0 in /  0 mm
16:51 9.6 °F /  -12.4 °C 6.0 °F /  -14.4 °C 1000.9 in /  33890.5 hPa WSW 28.0 mph /  45.1 km/h 40.7 mph /  65.5 km/h 75 % 0.0 in /  0 mm
16:53 9.6 °F /  -12.4 °C 6.0 °F /  -14.4 °C 1000.9 in /  33890.5 hPa WSW 24.5 mph /  39.4 km/h 40.7 mph /  65.5 km/h 74 % 0.0 in /  0 mm
16:54 9.6 °F /  -12.4 °C 6.0 °F /  -14.4 °C 1000.9 in /  33890.5 hPa WSW 21.2 mph /  34.1 km/h 37.8 mph /  60.8 km/h 75 % 0.0 in /  0 mm
16:59 9.6 °F /  -12.4 °C 6.0 °F /  -14.4 °C 1000.9 in /  33890.5 hPa WSW 35.6 mph /  57.3 km/h 39.6 mph /  63.7 km/h 75 % 0.0 in /  0 mm
17:01 9.6 °F /  -12.4 °C 6.0 °F /  -14.4 °C 1000.9 in /  33890.5 hPa WSW 28.5 mph /  45.9 km/h 39.6 mph /  63.7 km/h 75 % 0.0 in /  0 mm
17:07 9.6 °F /  -12.4 °C 6.0 °F /  -14.4 °C 1000.9 in /  33890.5 hPa West 22.7 mph /  36.5 km/h 40.7 mph /  65.5 km/h 75 % 0.0 in /  0 mm
17:09 9.6 °F /  -12.4 °C 6.0 °F /  -14.4 °C 1000.9 in /  33890.5 hPa West 28.8 mph /  46.3 km/h 40.7 mph /  65.5 km/h 75 % 0.0 in /  0 mm
17:13 9.5 °F /  -12.5 °C 6.0 °F /  -14.4 °C 1000.9 in /  33890.5 hPa WSW 32.0 mph /  51.5 km/h 40.7 mph /  65.5 km/h 75 % 0.0 in /  0 mm
17:18 9.5 °F /  -12.5 °C 6.0 °F /  -14.4 °C 1000.9 in /  33890.5 hPa WSW 31.7 mph /  51 km/h 43.1 mph /  69.4 km/h 75 % 0.0 in /  0 mm
17:23 9.4 °F /  -12.6 °C 6.0 °F /  -14.4 °C 1000.9 in /  33890.5 hPa West 21.2 mph /  34.1 km/h 43.1 mph /  69.4 km/h 75 % 0.0 in /  0 mm
17:26 9.4 °F /  -12.6 °C 6.0 °F /  -14.4 °C 1000.9 in /  33890.5 hPa West 28.5 mph /  45.9 km/h 39.6 mph /  63.7 km/h 75 % 0.0 in /  0 mm
17:32 9.4 °F /  -12.6 °C 6.0 °F /  -14.4 °C 1000.9 in /  33890.5 hPa WSW 27.7 mph /  44.6 km/h 39.6 mph /  63.7 km/h 75 % 0.0 in /  0 mm
17:37 9.3 °F /  -12.6 °C 6.0 °F /  -14.4 °C 1000.9 in /  33890.5 hPa WSW 37.0 mph /  59.5 km/h 38.5 mph /  62 km/h 75 % 0.0 in /  0 mm
17:42 9.3 °F /  -12.6 °C 6.0 °F /  -14.4 °C 1000.9 in /  33890.5 hPa WSW 20.9 mph /  33.6 km/h 38.1 mph /  61.3 km/h 75 % 0.0 in /  0 mm
17:47 9.2 °F /  -12.7 °C 6.0 °F /  -14.4 °C 1000.9 in /  33890.5 hPa WSW 27.7 mph /  44.6 km/h 38.1 mph /  61.3 km/h 75 % 0.0 in /  0 mm
17:48 9.2 °F /  -12.7 °C 6.0 °F /  -14.4 °C 1000.9 in /  33890.5 hPa WSW 21.2 mph /  34.1 km/h 38.1 mph /  61.3 km/h 75 % 0.0 in /  0 mm
17:52 9.2 °F /  -12.7 °C 6.0 °F /  -14.4 °C 1000.9 in /  33890.5 hPa WSW 24.8 mph /  39.9 km/h 38.1 mph /  61.3 km/h 75 % 0.0 in /  0 mm
17:57 9.1 °F /  -12.7 °C 5.0 °F /  -15 °C 1000.9 in /  33890.5 hPa WSW 33.1 mph /  53.3 km/h 37.8 mph /  60.8 km/h 76 % 0.0 in /  0 mm
17:58 9.1 °F /  -12.7 °C 5.0 °F /  -15 °C 1000.9 in /  33890.5 hPa WSW 31.4 mph /  50.5 km/h 37.8 mph /  60.8 km/h 76 % 0.0 in /  0 mm
18:03 9.2 °F /  -12.7 °C 6.0 °F /  -14.4 °C 1000.9 in /  33890.5 hPa WSW 28.0 mph /  45.1 km/h 40.7 mph /  65.5 km/h 75 % 0.0 in /  0 mm
18:12 9.1 °F /  -12.7 °C 5.0 °F /  -15 °C 1000.9 in /  33890.5 hPa WSW 27.0 mph /  43.5 km/h 39.3 mph /  63.2 km/h 75 % 0.0 in /  0 mm
18:17 9.1 °F /  -12.7 °C 5.0 °F /  -15 °C 1000.9 in /  33890.5 hPa WSW 17.2 mph /  27.7 km/h 39.3 mph /  63.2 km/h 75 % 0.0 in /  0 mm
18:22 9.1 °F /  -12.7 °C 5.0 °F /  -15 °C 1000.9 in /  33890.5 hPa WSW 28.5 mph /  45.9 km/h 36.7 mph /  59.1 km/h 75 % 0.0 in /  0 mm
18:26 9.0 °F /  -12.8 °C 5.0 °F /  -15 °C 1001.9 in /  33924.3 hPa WSW 29.1 mph /  46.8 km/h 36.4 mph /  58.6 km/h 75 % 0.0 in /  0 mm
18:31 9.0 °F /  -12.8 °C 5.0 °F /  -15 °C 1001.9 in /  33924.3 hPa WSW 27.7 mph /  44.6 km/h 39.3 mph /  63.2 km/h 74 % 0.0 in /  0 mm
18:32 9.0 °F /  -12.8 °C 5.0 °F /  -15 °C 1001.9 in /  33924.3 hPa WSW 25.6 mph /  41.2 km/h 39.3 mph /  63.2 km/h 74 % 0.0 in /  0 mm
18:37 9.1 °F /  -12.7 °C 5.0 °F /  -15 °C 1001.9 in /  33924.3 hPa WSW 28.0 mph /  45.1 km/h 39.3 mph /  63.2 km/h 74 % 0.0 in /  0 mm
18:38 9.1 °F /  -12.7 °C 5.0 °F /  -15 °C 1001.9 in /  33924.3 hPa West 31.7 mph /  51 km/h 39.3 mph /  63.2 km/h 74 % 0.0 in /  0 mm
18:44 8.9 °F /  -12.8 °C 5.0 °F /  -15 °C 1000.9 in /  33890.5 hPa WSW 16.6 mph /  26.7 km/h 39.3 mph /  63.2 km/h 75 % 0.0 in /  0 mm
18:46 8.9 °F /  -12.8 °C 5.0 °F /  -15 °C 1000.9 in /  33890.5 hPa West 23.3 mph /  37.5 km/h 39.3 mph /  63.2 km/h 75 % 0.0 in /  0 mm
18:51 8.8 °F /  -12.9 °C 5.0 °F /  -15 °C 1000.9 in /  33890.5 hPa WSW 35.6 mph /  57.3 km/h 40.4 mph /  65 km/h 75 % 0.0 in /  0 mm
18:53 8.8 °F /  -12.9 °C 5.0 °F /  -15 °C 1000.9 in /  33890.5 hPa WSW 37.0 mph /  59.5 km/h 40.4 mph /  65 km/h 75 % 0.0 in /  0 mm
18:54 8.8 °F /  -12.9 °C 5.0 °F /  -15 °C 1000.9 in /  33890.5 hPa WSW 32.8 mph /  52.8 km/h 40.4 mph /  65 km/h 75 % 0.0 in /  0 mm
18:59 8.8 °F /  -12.9 °C 5.0 °F /  -15 °C 1000.9 in /  33890.5 hPa West 24.8 mph /  39.9 km/h 40.4 mph /  65 km/h 75 % 0.0 in /  0 mm
19:01 8.9 °F /  -12.8 °C 5.0 °F /  -15 °C 1000.9 in /  33890.5 hPa WSW 25.6 mph /  41.2 km/h 38.9 mph /  62.6 km/h 75 % 0.0 in /  0 mm
19:06 9.0 °F /  -12.8 °C 5.0 °F /  -15 °C 1000.9 in /  33890.5 hPa West 37.8 mph /  60.8 km/h 42.8 mph /  68.9 km/h 74 % 0.0 in /  0 mm
19:09 8.9 °F /  -12.8 °C 5.0 °F /  -15 °C 1000.9 in /  33890.5 hPa WSW 24.5 mph /  39.4 km/h 42.8 mph /  68.9 km/h 75 % 0.0 in /  0 mm
19:14 8.9 °F /  -12.8 °C 5.0 °F /  -15 °C 1000.9 in /  33890.5 hPa West 24.8 mph /  39.9 km/h 42.8 mph /  68.9 km/h 75 % 0.0 in /  0 mm
19:19 9.0 °F /  -12.8 °C 5.0 °F /  -15 °C 1000.9 in /  33890.5 hPa WSW 32.0 mph /  51.5 km/h 38.5 mph /  62 km/h 74 % 0.0 in /  0 mm
19:22 9.0 °F /  -12.8 °C 5.0 °F /  -15 °C 1000.9 in /  33890.5 hPa West 27.7 mph /  44.6 km/h 39.6 mph /  63.7 km/h 74 % 0.0 in /  0 mm
19:27 9.0 °F /  -12.8 °C 5.0 °F /  -15 °C 1000.9 in /  33890.5 hPa West 28.0 mph /  45.1 km/h 39.6 mph /  63.7 km/h 74 % 0.0 in /  0 mm
19:29 9.0 °F /  -12.8 °C 5.0 °F /  -15 °C 1000.9 in /  33890.5 hPa WSW 22.4 mph /  36 km/h 39.6 mph /  63.7 km/h 74 % 0.0 in /  0 mm
19:32 9.0 °F /  -12.8 °C 5.0 °F /  -15 °C 1000.9 in /  33890.5 hPa WSW 30.9 mph /  49.7 km/h 35.2 mph /  56.6 km/h 74 % 0.0 in /  0 mm
19:37 9.0 °F /  -12.8 °C 5.0 °F /  -15 °C 1000.9 in /  33890.5 hPa West 28.0 mph /  45.1 km/h 35.6 mph /  57.3 km/h 75 % 0.0 in /  0 mm
19:40 9.1 °F /  -12.7 °C 5.0 °F /  -15 °C 1000.9 in /  33890.5 hPa WSW 28.0 mph /  45.1 km/h 35.6 mph /  57.3 km/h 75 % 0.0 in /  0 mm
19:45 9.2 °F /  -12.7 °C 6.0 °F /  -14.4 °C 1001.9 in /  33924.3 hPa WSW 38.9 mph /  62.6 km/h 43.9 mph /  70.6 km/h 75 % 0.0 in /  0 mm
19:48 9.2 °F /  -12.7 °C 6.0 °F /  -14.4 °C 1001.9 in /  33924.3 hPa WSW 17.2 mph /  27.7 km/h 43.9 mph /  70.6 km/h 75 % 0.0 in /  0 mm
19:54 9.2 °F /  -12.7 °C 6.0 °F /  -14.4 °C 1001.9 in /  33924.3 hPa WSW 36.7 mph /  59.1 km/h 43.9 mph /  70.6 km/h 75 % 0.0 in /  0 mm
19:57 9.3 °F /  -12.6 °C 6.0 °F /  -14.4 °C 1001.9 in /  33924.3 hPa WSW 22.7 mph /  36.5 km/h 41.4 mph /  66.6 km/h 75 % 0.0 in /  0 mm
20:04 9.2 °F /  -12.7 °C 6.0 °F /  -14.4 °C 1001.9 in /  33924.3 hPa West 36.0 mph /  57.9 km/h 41.0 mph /  66 km/h 75 % 0.0 in /  0 mm
20:09 9.2 °F /  -12.7 °C 6.0 °F /  -14.4 °C 1001.9 in /  33924.3 hPa West 20.9 mph /  33.6 km/h 37.0 mph /  59.5 km/h 75 % 0.0 in /  0 mm
20:13 9.2 °F /  -12.7 °C 6.0 °F /  -14.4 °C 1001.9 in /  33924.3 hPa West 29.9 mph /  48.1 km/h 37.0 mph /  59.5 km/h 75 % 0.0 in /  0 mm
20:19 9.1 °F /  -12.7 °C 5.0 °F /  -15 °C 1001.9 in /  33924.3 hPa WSW 20.1 mph /  32.3 km/h 37.5 mph /  60.3 km/h 76 % 0.0 in /  0 mm
20:20 9.1 °F /  -12.7 °C 5.0 °F /  -15 °C 1001.9 in /  33924.3 hPa WSW 20.9 mph /  33.6 km/h 37.5 mph /  60.3 km/h 76 % 0.0 in /  0 mm
20:25 9.1 °F /  -12.7 °C 5.0 °F /  -15 °C 1001.9 in /  33924.3 hPa West 19.8 mph /  31.9 km/h 34.3 mph /  55.2 km/h 76 % 0.0 in /  0 mm
20:28 9.1 °F /  -12.7 °C 5.0 °F /  -15 °C 1001.9 in /  33924.3 hPa West 28.5 mph /  45.9 km/h 28.8 mph /  46.3 km/h 76 % 0.0 in /  0 mm
20:29 9.1 °F /  -12.7 °C 5.0 °F /  -15 °C 1001.9 in /  33924.3 hPa West 43.9 mph /  70.6 km/h 43.9 mph /  70.6 km/h 76 % 0.0 in /  0 mm
20:33 9.2 °F /  -12.7 °C 6.0 °F /  -14.4 °C 1001.9 in /  33924.3 hPa WSW 30.9 mph /  49.7 km/h 44.2 mph /  71.1 km/h 76 % 0.0 in /  0 mm
20:38 9.2 °F /  -12.7 °C 6.0 °F /  -14.4 °C 1001.9 in /  33924.3 hPa WSW 17.2 mph /  27.7 km/h 44.2 mph /  71.1 km/h 76 % 0.0 in /  0 mm
20:40 9.1 °F /  -12.7 °C 5.0 °F /  -15 °C 1001.9 in /  33924.3 hPa WSW 20.6 mph /  33.2 km/h 41.0 mph /  66 km/h 76 % 0.0 in /  0 mm
20:41 9.1 °F /  -12.7 °C 5.0 °F /  -15 °C 1001.9 in /  33924.3 hPa WSW 17.7 mph /  28.5 km/h 41.0 mph /  66 km/h 76 % 0.0 in /  0 mm
20:46 9.1 °F /  -12.7 °C 5.0 °F /  -15 °C 1001.9 in /  33924.3 hPa WSW 21.2 mph /  34.1 km/h 41.0 mph /  66 km/h 76 % 0.0 in /  0 mm
20:52 9.2 °F /  -12.7 °C 6.0 °F /  -14.4 °C 1001.9 in /  33924.3 hPa West 31.4 mph /  50.5 km/h 37.5 mph /  60.3 km/h 76 % 0.0 in /  0 mm
20:57 9.1 °F /  -12.7 °C 5.0 °F /  -15 °C 1001.9 in /  33924.3 hPa West 20.9 mph /  33.6 km/h 37.5 mph /  60.3 km/h 76 % 0.0 in /  0 mm
20:58 9.1 °F /  -12.7 °C 5.0 °F /  -15 °C 1001.9 in /  33924.3 hPa WSW 36.0 mph /  57.9 km/h 43.6 mph /  70.2 km/h 76 % 0.0 in /  0 mm
20:59 9.1 °F /  -12.7 °C 5.0 °F /  -15 °C 1001.9 in /  33924.3 hPa West 23.3 mph /  37.5 km/h 43.6 mph /  70.2 km/h 76 % 0.0 in /  0 mm
21:05 9.2 °F /  -12.7 °C 6.0 °F /  -14.4 °C 1001.9 in /  33924.3 hPa WSW 34.6 mph /  55.7 km/h 43.6 mph /  70.2 km/h 76 % 0.0 in /  0 mm
21:10 9.2 °F /  -12.7 °C 6.0 °F /  -14.4 °C 1001.9 in /  33924.3 hPa West 17.7 mph /  28.5 km/h 36.7 mph /  59.1 km/h 76 % 0.0 in /  0 mm
21:15 9.2 °F /  -12.7 °C 6.0 °F /  -14.4 °C 1001.9 in /  33924.3 hPa WSW 17.7 mph /  28.5 km/h 41.0 mph /  66 km/h 76 % 0.0 in /  0 mm
21:20 9.2 °F /  -12.7 °C 6.0 °F /  -14.4 °C 1001.9 in /  33924.3 hPa WSW 24.8 mph /  39.9 km/h 41.0 mph /  66 km/h 76 % 0.0 in /  0 mm
21:25 9.1 °F /  -12.7 °C 5.0 °F /  -15 °C 1001.9 in /  33924.3 hPa WSW 25.9 mph /  41.7 km/h 36.7 mph /  59.1 km/h 76 % 0.0 in /  0 mm
21:28 9.1 °F /  -12.7 °C 5.0 °F /  -15 °C 1001.9 in /  33924.3 hPa West 19.5 mph /  31.4 km/h 36.7 mph /  59.1 km/h 76 % 0.0 in /  0 mm
21:33 9.1 °F /  -12.7 °C 6.0 °F /  -14.4 °C 1001.9 in /  33924.3 hPa West 30.9 mph /  49.7 km/h 36.7 mph /  59.1 km/h 77 % 0.0 in /  0 mm
21:34 9.1 °F /  -12.7 °C 6.0 °F /  -14.4 °C 1001.9 in /  33924.3 hPa WSW 28.0 mph /  45.1 km/h 36.7 mph /  59.1 km/h 77 % 0.0 in /  0 mm
21:38 9.1 °F /  -12.7 °C 6.0 °F /  -14.4 °C 1001.9 in /  33924.3 hPa West 24.5 mph /  39.4 km/h 32.0 mph /  51.5 km/h 77 % 0.0 in /  0 mm
21:44 9.1 °F /  -12.7 °C 6.0 °F /  -14.4 °C 1001.9 in /  33924.3 hPa WSW 15.8 mph /  25.4 km/h 27.7 mph /  44.6 km/h 77 % 0.0 in /  0 mm
21:48 9.1 °F /  -12.7 °C 5.0 °F /  -15 °C 1001.9 in /  33924.3 hPa West 21.2 mph /  34.1 km/h 37.5 mph /  60.3 km/h 76 % 0.0 in /  0 mm
21:53 9.1 °F /  -12.7 °C 5.0 °F /  -15 °C 1001.9 in /  33924.3 hPa West 20.6 mph /  33.2 km/h 37.5 mph /  60.3 km/h 76 % 0.0 in /  0 mm
21:54 9.2 °F /  -12.7 °C 6.0 °F /  -14.4 °C 1001.9 in /  33924.3 hPa West 24.8 mph /  39.9 km/h 37.5 mph /  60.3 km/h 76 % 0.0 in /  0 mm
21:55 9.2 °F /  -12.7 °C 6.0 °F /  -14.4 °C 1001.9 in /  33924.3 hPa West 24.8 mph /  39.9 km/h 37.5 mph /  60.3 km/h 76 % 0.0 in /  0 mm
22:01 9.2 °F /  -12.7 °C 6.0 °F /  -14.4 °C 1001.9 in /  33924.3 hPa West 20.9 mph /  33.6 km/h 37.0 mph /  59.5 km/h 76 % 0.0 in /  0 mm
22:02 9.2 °F /  -12.7 °C 6.0 °F /  -14.4 °C 1001.9 in /  33924.3 hPa West 24.5 mph /  39.4 km/h 37.0 mph /  59.5 km/h 76 % 0.0 in /  0 mm
22:07 9.2 °F /  -12.7 °C 6.0 °F /  -14.4 °C 1001.9 in /  33924.3 hPa West 31.4 mph /  50.5 km/h 36.4 mph /  58.6 km/h 75 % 0.0 in /  0 mm
22:08 9.2 °F /  -12.7 °C 6.0 °F /  -14.4 °C 1001.9 in /  33924.3 hPa WSW 23.8 mph /  38.3 km/h 36.4 mph /  58.6 km/h 75 % 0.0 in /  0 mm
22:13 9.2 °F /  -12.7 °C 6.0 °F /  -14.4 °C 1001.9 in /  33924.3 hPa WSW 20.6 mph /  33.2 km/h 36.4 mph /  58.6 km/h 75 % 0.0 in /  0 mm
22:17 9.1 °F /  -12.7 °C 5.0 °F /  -15 °C 1001.9 in /  33924.3 hPa WSW 20.6 mph /  33.2 km/h 30.2 mph /  48.6 km/h 75 % 0.0 in /  0 mm
22:22 9.0 °F /  -12.8 °C 5.0 °F /  -15 °C 1001.9 in /  33924.3 hPa WSW 23.8 mph /  38.3 km/h 27.0 mph /  43.5 km/h 76 % 0.0 in /  0 mm
22:23 9.0 °F /  -12.8 °C 5.0 °F /  -15 °C 1001.9 in /  33924.3 hPa WSW 17.7 mph /  28.5 km/h 27.0 mph /  43.5 km/h 76 % 0.0 in /  0 mm
22:28 8.9 °F /  -12.8 °C 5.0 °F /  -15 °C 1001.9 in /  33924.3 hPa West 19.1 mph /  30.7 km/h 27.0 mph /  43.5 km/h 76 % 0.0 in /  0 mm
22:33 8.8 °F /  -12.9 °C 6.0 °F /  -14.4 °C 1001.9 in /  33924.3 hPa West 20.1 mph /  32.3 km/h 27.7 mph /  44.6 km/h 77 % 0.0 in /  0 mm
22:42 8.7 °F /  -12.9 °C 5.0 °F /  -15 °C 1001.9 in /  33924.3 hPa WSW 13.7 mph /  22 km/h 27.4 mph /  44.1 km/h 77 % 0.0 in /  0 mm
22:44 8.7 °F /  -12.9 °C 5.0 °F /  -15 °C 1001.9 in /  33924.3 hPa WSW 24.5 mph /  39.4 km/h 27.4 mph /  44.1 km/h 77 % 0.0 in /  0 mm
22:49 8.7 °F /  -12.9 °C 5.0 °F /  -15 °C 1001.9 in /  33924.3 hPa West 14.0 mph /  22.5 km/h 29.1 mph /  46.8 km/h 77 % 0.0 in /  0 mm
22:51 8.7 °F /  -12.9 °C 5.0 °F /  -15 °C 1001.9 in /  33924.3 hPa West 20.1 mph /  32.3 km/h 29.1 mph /  46.8 km/h 77 % 0.0 in /  0 mm
22:57 8.6 °F /  -13 °C 5.0 °F /  -15 °C 1001.9 in /  33924.3 hPa West 17.2 mph /  27.7 km/h 29.1 mph /  46.8 km/h 78 % 0.0 in /  0 mm
23:02 8.5 °F /  -13.1 °C 5.0 °F /  -15 °C 1001.9 in /  33924.3 hPa WSW 11.1 mph /  17.9 km/h 24.8 mph /  39.9 km/h 78 % 0.0 in /  0 mm
23:10 8.5 °F /  -13.1 °C 6.0 °F /  -14.4 °C 1001.9 in /  33924.3 hPa West 16.9 mph /  27.2 km/h 25.6 mph /  41.2 km/h 79 % 0.0 in /  0 mm
23:14 8.6 °F /  -13 °C 6.0 °F /  -14.4 °C 1001.9 in /  33924.3 hPa WSW 21.2 mph /  34.1 km/h 31.7 mph /  51 km/h 80 % 0.0 in /  0 mm
23:16 8.6 °F /  -13 °C 6.0 °F /  -14.4 °C 1001.9 in /  33924.3 hPa West 19.8 mph /  31.9 km/h 31.7 mph /  51 km/h 80 % 0.0 in /  0 mm
23:22 8.6 °F /  -13 °C 6.0 °F /  -14.4 °C 1001.9 in /  33924.3 hPa West 12.2 mph /  19.6 km/h 28.3 mph /  45.5 km/h 80 % 0.0 in /  0 mm
23:23 8.6 °F /  -13 °C 6.0 °F /  -14.4 °C 1001.9 in /  33924.3 hPa West 26.2 mph /  42.2 km/h 28.3 mph /  45.5 km/h 80 % 0.0 in /  0 mm
23:25 8.6 °F /  -13 °C 6.0 °F /  -14.4 °C 1001.9 in /  33924.3 hPa West 15.8 mph /  25.4 km/h 32.0 mph /  51.5 km/h 80 % 0.0 in /  0 mm
23:31 8.5 °F /  -13.1 °C 6.0 °F /  -14.4 °C 1001.9 in /  33924.3 hPa WSW 16.3 mph /  26.2 km/h 32.0 mph /  51.5 km/h 81 % 0.0 in /  0 mm
23:36 8.5 °F /  -13.1 °C 6.0 °F /  -14.4 °C 1001.9 in /  33924.3 hPa West 17.7 mph /  28.5 km/h 27.4 mph /  44.1 km/h 81 % 0.0 in /  0 mm
23:41 8.5 °F /  -13.1 °C 6.0 °F /  -14.4 °C 1001.9 in /  33924.3 hPa West 20.6 mph /  33.2 km/h 27.4 mph /  44.1 km/h 81 % 0.0 in /  0 mm
23:46 8.5 °F /  -13.1 °C 6.0 °F /  -14.4 °C 1001.9 in /  33924.3 hPa West 12.6 mph /  20.3 km/h 24.5 mph /  39.4 km/h 81 % 0.0 in /  0 mm
23:51 8.3 °F /  -13.2 °C 6.0 °F /  -14.4 °C 1001.9 in /  33924.3 hPa WSW 19.5 mph /  31.4 km/h 21.2 mph /  34.1 km/h 82 % 0.0 in /  0 mm
23:54 8.4 °F /  -13.1 °C 6.0 °F /  -14.4 °C 1001.9 in /  33924.3 hPa West 13.0 mph /  20.9 km/h 22.7 mph /  36.5 km/h 82 % 0.0 in /  0 mm
23:57 8.3 °F /  -13.2 °C 6.0 °F /  -14.4 °C 1000.9 in /  33890.5 hPa WSW 17.2 mph /  27.7 km/h 22.7 mph /  36.5 km/h 82 % 0.0 in /  0 mm
Le Gheer Warneton
Courtoisie de Weather Underground - 2.75 mb

Mise a jour : 18/02/2018 06:18:12
Généré par Cumulus 1.9.4 (1099)